Time;durP1;ratioP1;P1;durP2;ratioP2;P2;SDS_P1;SDS_P2;PMS_P1;PMS_P2;Temp;Humidity;BMP_temperature;BMP_pressure;BME280_temperature;BME280_humidity;BME280_pressure;Samples;Min_cycle;Max_cycle;Signal;HPM_P1;HPM_P2
2023/07/14 00:01:19;;;;;;;17.85;16.95;;;;;;;-141.02;93.74;42010.53;5134043;27;20240;-65
2023/07/14 00:03:46;;;;;;;18.48;17.58;;;;;;;-141.02;92.34;41964.47;5134170;27;20181;-57
2023/07/14 00:06:14;;;;;;;18.80;17.90;;;;;;;-141.02;94.18;42006.72;5134400;27;20204;-59
2023/07/14 00:08:41;;;;;;;18.10;17.20;;;;;;;-141.02;95.32;42033.56;5133955;27;20244;-65
2023/07/14 00:11:14;;;;;;;18.90;18.00;;;;;;;-141.02;93.21;41972.16;5134007;27;20192;-65
2023/07/14 00:13:41;;;;;;;19.10;18.15;;;;;;;-141.02;93.04;41999.03;5134202;27;20185;-60
2023/07/14 00:16:15;;;;;;;18.55;17.65;;;;;;;-141.02;93.66;41991.34;5133955;27;20260;-59
2023/07/14 00:18:42;;;;;;;18.85;17.95;;;;;;;-141.02;92.64;41999.03;5134049;27;20219;-62
2023/07/14 00:21:17;;;;;;;18.45;17.55;;;;;;;-141.02;93.47;42056.59;5133701;27;20224;-62
2023/07/14 00:23:44;;;;;;;18.67;17.77;;;;;;;-141.02;95.08;42048.94;5134353;27;20222;-64
2023/07/14 00:26:50;;;;;;;17.88;17.05;;;;;;;-141.02;97.73;42025.91;5133948;27;20223;-57
2023/07/14 00:29:37;;;;;;;18.10;17.20;;;;;;;-141.02;97.21;41991.34;5133622;27;20235;-62
2023/07/14 00:32:13;;;;;;;17.67;16.88;;;;;;;-141.02;96.86;41968.31;5133753;27;20189;-63
2023/07/14 00:34:40;;;;;;;17.55;16.75;;;;;;;-141.02;96.57;42018.22;5133943;27;20184;-62
2023/07/14 00:37:07;;;;;;;18.10;17.30;;;;;;;-141.02;95.79;42023.97;5133716;27;20576;-57
2023/07/14 00:39:34;;;;;;;18.38;17.48;;;;;;;-141.02;93.24;42014.38;5133318;27;20283;-64
2023/07/14 00:42:03;;;;;;;18.65;17.75;;;;;;;-141.02;91.86;41885.78;5133652;27;20275;-62
2023/07/14 00:44:31;;;;;;;19.27;18.27;;;;;;;-141.02;90.66;42002.88;5133642;27;20218;-57
2023/07/14 00:46:58;;;;;;;18.95;18.05;;;;;;;-141.02;90.65;42004.78;5133609;27;20210;-65
2023/07/14 00:49:33;;;;;;;19.20;18.20;;;;;;;-141.02;90.02;42008.63;5133503;27;20199;-65
2023/07/14 00:55:41;;;;;;;19.70;18.70;;;;;;;-141.02;86.71;41976.00;5133156;27;20194;-64
2023/07/14 00:58:15;;;;;;;20.05;19.05;;;;;;;-141.02;87.37;42033.56;5133289;27;20189;-65
2023/07/14 01:01:05;;;;;;;20.08;19.08;;;;;;;-141.02;86.54;41993.28;5133082;27;20303;-64
2023/07/14 01:03:39;;;;;;;20.67;19.58;;;;;;;-141.02;86.19;42045.09;5133067;27;20188;-57
2023/07/14 01:09:29;;;;;;;20.65;19.65;;;;;;;-141.02;84.55;42022.06;5133118;27;20207;-56
2023/07/14 01:11:56;;;;;;;21.40;20.30;;;;;;;-141.02;84.20;42020.16;5132969;27;20283;-64
2023/07/14 01:14:27;;;;;;;20.88;19.77;;;;;;;-141.02;83.79;42035.50;5133259;27;20697;-64
2023/07/14 01:16:54;;;;;;;20.95;19.85;;;;;;;-141.02;83.23;42014.38;5132681;27;20236;-61
2023/07/14 01:19:32;;;;;;;20.98;19.88;;;;;;;-141.02;83.04;42016.31;5133092;27;20192;-62
2023/07/14 01:22:13;;;;;;;21.45;20.35;;;;;;;-141.02;83.70;42052.78;5133193;28;20230;-66
2023/07/14 01:24:51;;;;;;;21.23;20.13;;;;;;;-141.02;84.18;42033.56;5133203;27;20267;-66
2023/07/14 01:27:19;;;;;;;21.17;20.08;;;;;;;-141.02;83.55;42020.16;5133152;28;20180;-66
2023/07/14 01:29:46;;;;;;;21.38;20.27;;;;;;;-141.02;84.50;42029.75;5133296;28;20196;-57
2023/07/14 01:32:17;;;;;;;21.00;19.90;;;;;;;-141.02;84.01;42029.75;5132723;28;20196;-64
2023/07/14 01:34:45;;;;;;;20.75;19.65;;;;;;;-141.02;84.70;42027.81;5132792;28;20184;-64
2023/07/14 01:37:12;;;;;;;20.95;19.85;;;;;;;-141.02;84.54;42047.00;5132952;28;20203;-66
2023/07/14 01:39:40;;;;;;;21.08;19.98;;;;;;;-141.02;84.71;42066.22;5132980;28;20641;-64
2023/07/14 01:42:07;;;;;;;21.52;20.42;;;;;;;-141.02;84.42;42033.56;5134676;27;20192;-63
2023/07/14 01:44:37;;;;;;;20.77;19.67;;;;;;;-141.02;84.24;42033.56;5137209;27;20223;-56
2023/07/14 01:47:05;;;;;;;21.45;20.35;;;;;;;-141.02;82.28;42033.56;5136983;27;20604;-57
2023/07/14 01:49:39;;;;;;;21.13;20.02;;;;;;;-141.02;82.22;42047.00;5137031;27;20549;-64
2023/07/14 01:52:10;;;;;;;21.83;20.73;;;;;;;-141.02;81.47;42016.31;5137014;27;20216;-60
2023/07/14 01:54:44;;;;;;;21.52;20.42;;;;;;;-141.02;81.04;42014.38;5136655;27;20188;-65
2023/07/14 01:57:14;;;;;;;21.60;20.40;;;;;;;-141.02;82.22;42045.09;5136681;27;20192;-63
2023/07/14 01:59:47;;;;;;;21.48;20.38;;;;;;;-141.02;82.34;42000.94;5136549;27;20694;-65
2023/07/14 02:02:18;;;;;;;21.20;20.10;;;;;;;-141.02;82.91;42016.31;5136753;27;20754;-65
2023/07/14 02:04:47;;;;;;;21.02;19.92;;;;;;;-141.02;83.33;42014.38;5136757;27;20185;-65
2023/07/14 02:07:15;;;;;;;20.83;19.83;;;;;;;-141.02;83.65;41997.13;5136679;27;20626;-64
2023/07/14 02:09:43;;;;;;;21.40;20.30;;;;;;;-141.02;80.47;41952.97;5136603;27;20192;-56
2023/07/14 02:16:17;;;;;;;21.80;20.70;;;;;;;-141.02;81.60;41933.78;5131137;27;20269;-64
2023/07/14 02:18:47;;;;;;;21.33;20.23;;;;;;;-141.02;81.33;41974.06;5136115;27;20200;-57
2023/07/14 02:21:17;;;;;;;21.35;20.25;;;;;;;-141.02;82.09;41964.47;5136347;27;20306;-63
2023/07/14 02:23:45;;;;;;;21.00;19.90;;;;;;;-141.02;83.90;41987.50;5136022;27;20650;-64
2023/07/14 02:26:22;;;;;;;20.98;19.88;;;;;;;-141.02;83.71;41974.06;5136085;27;20245;-61
2023/07/14 02:28:49;;;;;;;21.45;20.35;;;;;;;-141.02;82.62;41949.13;5136289;27;20189;-62
2023/07/14 02:31:24;;;;;;;21.80;20.70;;;;;;;-141.02;81.13;41949.13;5136258;27;20197;-65
2023/07/14 02:43:42;;;;;;;22.83;21.63;;;;;;;-141.02;70.26;41943.38;5135856;27;20669;-64
2023/07/14 02:46:15;;;;;;;22.40;21.20;;;;;;;-141.02;68.86;41952.97;5135640;27;20670;-60
2023/07/14 02:48:44;;;;;;;22.85;21.65;;;;;;;-141.02;65.39;42043.19;5136060;27;20557;-57
2023/07/14 02:51:12;;;;;;;23.58;22.27;;;;;;;-141.02;63.49;42095.00;5135505;27;20198;-56
2023/07/14 02:53:40;;;;;;;22.23;20.98;;;;;;;-141.02;61.53;42164.09;5134782;27;20651;-58
2023/07/14 03:02:51;;;;;;;21.83;20.63;;;;;;;-141.02;58.55;42428.97;5135900;27;20672;-57
2023/07/14 03:08:44;;;;;;;22.67;21.38;;;;;;;-141.02;58.52;42670.84;5135664;27;20649;-57
2023/07/14 03:14:33;;;;;;;22.10;20.70;;;;;;;-141.02;58.85;42882.00;5135289;27;20227;-67
2023/07/14 03:17:41;;;;;;;22.10;20.90;;;;;;;-141.02;59.96;42920.41;5135165;27;20239;-58
2023/07/14 03:20:16;;;;;;;22.10;20.80;;;;;;;-141.02;60.88;43022.16;5134922;27;20284;-64
2023/07/14 03:30:06;;;;;;;22.45;21.15;;;;;;;-141.02;64.27;43166.16;5135467;27;20222;-59
2023/07/14 03:32:34;;;;;;;21.85;20.65;;;;;;;-141.02;64.60;43206.47;5134798;27;20715;-65
2023/07/14 03:35:01;;;;;;;22.10;20.90;;;;;;;-141.02;66.07;43250.63;5134940;27;20284;-58
2023/07/14 03:37:28;;;;;;;22.02;20.83;;;;;;;-141.02;67.26;43264.06;5134996;27;20253;-59
2023/07/14 03:39:55;;;;;;;21.90;20.70;;;;;;;-141.02;67.58;43308.22;5135139;27;20221;-64
2023/07/14 03:42:22;;;;;;;21.55;20.35;;;;;;;-141.02;67.35;43350.47;5134847;27;20262;-61
2023/07/14 03:44:50;;;;;;;21.92;20.73;;;;;;;-141.02;67.56;43450.31;5134801;27;20257;-66
2023/07/14 03:47:17;;;;;;;21.27;19.98;;;;;;;-141.02;67.32;43484.88;5134723;27;20249;-60
2023/07/14 03:49:45;;;;;;;21.92;20.73;;;;;;;-141.02;66.71;43530.97;5134750;27;20224;-61
2023/07/14 03:52:13;;;;;;;22.30;21.08;;;;;;;-141.02;66.71;43573.19;5134690;27;20249;-58
2023/07/14 03:54:40;;;;;;;21.27;20.02;;;;;;;-141.02;66.35;43586.66;5135001;27;20247;-57
2023/07/14 03:57:07;;;;;;;22.08;20.88;;;;;;;-141.02;66.15;43663.44;5134639;27;20235;-60
2023/07/14 03:59:34;;;;;;;22.08;20.88;;;;;;;-141.02;65.55;43696.09;5134504;27;20193;-57
2023/07/14 04:02:01;;;;;;;21.05;19.77;;;;;;;-141.02;65.78;43740.25;5134498;27;20220;-57
2023/07/14 04:04:29;;;;;;;21.42;20.23;;;;;;;-141.02;67.87;43794.03;5134656;27;20626;-64
2023/07/14 04:06:58;;;;;;;21.30;20.10;;;;;;;-141.02;68.23;43811.31;5133986;27;20279;-62
2023/07/14 04:09:25;;;;;;;21.30;20.10;;;;;;;-141.02;67.85;43888.13;5134309;27;20196;-57
2023/07/14 04:11:52;;;;;;;22.30;21.10;;;;;;;-141.02;68.36;43918.84;5134477;27;20200;-57
2023/07/14 04:14:20;;;;;;;21.80;20.60;;;;;;;-141.02;69.47;43964.94;5134176;27;20193;-57
2023/07/14 04:16:46;;;;;;;21.10;20.00;;;;;;;-141.02;70.76;43943.81;5133662;27;20271;-59
2023/07/14 04:19:14;;;;;;;21.75;20.55;;;;;;;-141.02;71.99;43968.78;5134244;27;20613;-59
2023/07/14 04:21:41;;;;;;;21.50;20.33;;;;;;;-141.02;72.83;44057.13;5133948;27;20315;-56
2023/07/14 04:24:09;;;;;;;21.48;20.27;;;;;;;-141.02;72.40;44064.81;5134350;27;20192;-62
2023/07/14 04:26:36;;;;;;;21.60;20.50;;;;;;;-141.02;73.32;44137.78;5134062;27;20384;-65
2023/07/14 04:29:05;;;;;;;20.77;19.67;;;;;;;-141.02;74.86;44164.66;5133912;27;20192;-61
2023/07/14 04:31:32;;;;;;;20.55;19.45;;;;;;;-141.02;76.16;44260.69;5133972;27;20189;-58
2023/07/14 04:33:59;;;;;;;20.52;19.42;;;;;;;-141.02;77.10;44402.81;5133610;27;20666;-57
2023/07/14 04:36:26;;;;;;;19.05;17.95;;;;;;;-141.02;78.50;44548.78;5133598;27;20198;-59
2023/07/14 04:39:04;;;;;;;41.75;39.35;;;;;;;-141.02;79.74;44639.06;5133781;27;20287;-58
2023/07/14 04:41:34;;;;;;;47.33;44.83;;;;;;;-141.02;80.72;44800.41;5133445;27;20220;-56
2023/07/14 04:44:03;;;;;;;19.23;18.23;;;;;;;-141.02;81.76;44873.41;5133768;27;20270;-57
2023/07/14 04:46:30;;;;;;;19.15;18.15;;;;;;;-141.02;81.29;44973.28;5133373;27;20192;-57
2023/07/14 04:48:58;;;;;;;19.52;18.52;;;;;;;-141.02;81.34;45098.16;5133298;27;20681;-59
2023/07/14 04:51:25;;;;;;;18.88;17.88;;;;;;;-141.02;81.57;45209.59;5133417;27;20202;-62
2023/07/14 04:53:52;;;;;;;19.30;18.30;;;;;;;-141.02;81.46;45221.09;5133331;27;20254;-62
2023/07/14 04:56:19;;;;;;;19.65;18.65;;;;;;;-141.02;81.02;45228.78;5133186;27;20723;-57
2023/07/14 04:58:47;;;;;;;20.42;19.33;;;;;;;-141.02;77.57;45117.38;5133199;27;20193;-58
2023/07/14 05:01:14;;;;;;;20.27;19.17;;;;;;;-141.02;77.39;45319.09;5133302;27;20269;-59
2023/07/14 05:03:43;;;;;;;20.05;18.95;;;;;;;-141.02;77.38;45582.28;5133443;27;20196;-60
2023/07/14 05:06:11;;;;;;;20.08;18.98;;;;;;;-141.02;75.67;45672.59;5133439;27;20241;-61
2023/07/14 05:08:38;;;;;;;19.90;18.80;;;;;;;-141.02;75.38;45643.78;5133018;27;20639;-62
2023/07/14 05:11:05;;;;;;;19.95;18.85;;;;;;;-141.02;74.69;45589.97;5133216;27;20581;-62
2023/07/14 05:13:32;;;;;;;20.50;19.40;;;;;;;-141.02;74.65;45866.66;5133279;27;20192;-59
2023/07/14 05:16:01;;;;;;;20.05;18.95;;;;;;;-141.02;73.09;45747.53;5132700;27;20189;-65
2023/07/14 05:18:27;;;;;;;20.00;18.90;;;;;;;-141.02;72.51;45655.31;5132763;27;20653;-64
2023/07/14 05:20:59;;;;;;;19.70;18.60;;;;;;;-141.02;75.38;45849.38;5133239;27;20279;-59
2023/07/14 05:23:27;;;;;;;19.45;18.35;;;;;;;-141.02;75.64;45732.16;5133274;28;20199;-59
2023/07/14 05:25:55;;;;;;;19.67;18.58;;;;;;;-141.02;75.26;45724.47;5132803;28;20217;-65
2023/07/14 05:28:23;;;;;;;19.52;18.48;;;;;;;-141.02;77.26;46124.16;5132903;27;20236;-59
2023/07/14 05:30:51;;;;;;;19.35;18.35;;;;;;;-141.02;76.21;46193.34;5132769;28;20200;-62
2023/07/14 05:33:19;;;;;;;19.67;18.58;;;;;;;-141.02;74.37;45749.47;5133121;28;20283;-65
2023/07/14 05:35:47;;;;;;;19.27;18.27;;;;;;;-141.02;75.95;45805.19;5133140;27;20196;-65
2023/07/14 05:38:14;;;;;;;19.33;18.33;;;;;;;-141.02;75.15;45905.09;5132706;28;20683;-57
2023/07/14 05:40:42;;;;;;;19.67;18.67;;;;;;;-141.02;74.19;45711.03;5132753;27;20614;-63
2023/07/14 05:43:09;;;;;;;19.63;18.60;;;;;;;-141.02;77.89;46266.34;5133179;27;20655;-65
2023/07/14 05:45:36;;;;;;;19.58;18.58;;;;;;;-141.02;75.24;46143.38;5132661;28;20228;-62
2023/07/14 05:48:03;;;;;;;20.05;18.95;;;;;;;-141.02;75.23;46229.84;5132915;28;20224;-63
2023/07/14 05:50:32;;;;;;;19.92;18.92;;;;;;;-141.02;75.64;46358.59;5132903;28;20271;-64
2023/07/14 05:52:59;;;;;;;19.75;18.65;;;;;;;-141.02;75.12;46243.28;5133180;28;20201;-57
2023/07/14 05:55:26;;;;;;;19.52;18.42;;;;;;;-141.02;73.77;46224.06;5132570;28;20196;-57
2023/07/14 05:57:53;;;;;;;19.77;18.67;;;;;;;-141.02;73.87;46181.81;5132941;28;20243;-60
2023/07/14 06:00:20;;;;;;;20.08;18.98;;;;;;;-141.02;74.71;46272.13;5132470;28;20199;-61
2023/07/14 06:02:50;;;;;;;20.48;19.38;;;;;;;-141.02;74.10;46024.22;5132746;28;20228;-62
2023/07/14 06:05:19;;;;;;;20.63;19.52;;;;;;;-141.02;72.79;45858.97;5132795;28;20246;-64
2023/07/14 06:07:47;;;;;;;20.65;19.45;;;;;;;-141.02;74.60;46035.75;5132800;28;20336;-65
2023/07/14 06:10:16;;;;;;;20.95;19.75;;;;;;;-141.02;72.69;45860.91;5132465;28;20232;-63
2023/07/14 06:12:44;;;;;;;20.75;19.60;;;;;;;-141.02;73.30;46001.16;5132700;28;20199;-64
2023/07/14 06:15:11;;;;;;;25.70;24.27;;;;;;;-141.02;73.44;46158.75;5132922;27;20193;-63
2023/07/14 06:17:39;;;;;;;21.00;19.90;;;;;;;-141.02;73.00;46252.91;5132249;28;20667;-64
2023/07/14 06:20:08;;;;;;;20.48;19.38;;;;;;;-141.02;72.42;46166.44;5132351;28;20193;-61
2023/07/14 06:22:35;;;;;;;20.73;19.63;;;;;;;-141.02;74.08;46389.34;5132624;28;20315;-63
2023/07/14 06:25:03;;;;;;;21.08;19.88;;;;;;;-141.02;70.74;46195.25;5132644;28;20220;-58
2023/07/14 06:27:33;;;;;;;20.85;19.70;;;;;;;-141.02;71.20;46322.09;5132694;27;20196;-63
2023/07/14 06:30:00;;;;;;;33.80;32.00;;;;;;;-141.02;69.64;46304.78;5135764;27;20195;-62
2023/07/14 06:32:27;;;;;;;21.92;20.73;;;;;;;-141.02;70.88;46427.78;5136225;27;20235;-64
2023/07/14 06:34:56;;;;;;;21.50;20.40;;;;;;;-141.02;69.43;46289.41;5136126;27;20196;-62
2023/07/14 06:37:24;;;;;;;21.98;20.77;;;;;;;-141.02;68.84;46285.56;5136289;27;20192;-61
2023/07/14 06:39:52;;;;;;;21.35;20.23;;;;;;;-141.02;69.23;46512.34;5136132;27;20204;-61
2023/07/14 06:42:20;;;;;;;21.40;20.20;;;;;;;-141.02;72.86;46028.06;5135697;27;20315;-66
2023/07/14 06:44:47;;;;;;;21.60;20.42;;;;;;;-141.02;70.45;46189.50;5136064;27;20242;-61
2023/07/14 06:47:15;;;;;;;22.10;20.90;;;;;;;-141.02;71.23;46520.03;5135913;27;20279;-62
2023/07/14 06:49:42;;;;;;;21.70;20.60;;;;;;;-141.02;69.82;46395.13;5135691;27;20200;-61
2023/07/14 06:52:11;;;;;;;22.15;21.00;;;;;;;-141.02;70.19;46366.28;5135555;27;20279;-59
2023/07/14 06:54:38;;;;;;;21.13;20.02;;;;;;;-141.02;73.25;46577.69;5135606;27;20197;-60
2023/07/14 06:57:06;;;;;;;21.77;20.67;;;;;;;-141.02;74.39;47425.34;5135530;27;20655;-62
2023/07/14 06:59:35;;;;;;;22.40;21.20;;;;;;;-141.02;71.37;47058.19;5136483;27;20192;-66
2023/07/14 07:02:03;;;;;;;22.48;21.27;;;;;;;-141.02;70.11;47329.22;5135585;27;20228;-59
2023/07/14 07:04:32;;;;;;;23.65;22.35;;;;;;;-141.02;68.86;47329.22;5135709;27;20271;-61
2023/07/14 07:06:59;;;;;;;23.25;21.95;;;;;;;-141.02;69.36;47465.72;5135678;27;20200;-64
2023/07/14 07:09:27;;;;;;;22.90;21.70;;;;;;;-141.02;68.34;47292.69;5135233;27;20705;-64
2023/07/14 07:11:54;;;;;;;22.48;21.27;;;;;;;-141.02;68.03;47365.75;5135534;27;20189;-61
2023/07/14 07:14:21;;;;;;;22.77;21.58;;;;;;;-141.02;68.17;47110.09;5135215;27;20693;-61
2023/07/14 07:16:50;;;;;;;22.80;21.60;;;;;;;-141.02;68.07;47358.06;5134975;27;20307;-64
2023/07/14 07:19:17;;;;;;;22.98;21.77;;;;;;;-141.02;67.81;47404.19;5135155;27;20250;-65
2023/07/14 07:21:44;;;;;;;23.15;21.95;;;;;;;-141.02;66.87;47559.91;5134873;27;20220;-62
2023/07/14 07:24:12;;;;;;;23.33;22.02;;;;;;;-141.02;67.75;48077.09;5135020;27;20239;-61
2023/07/14 07:26:39;;;;;;;22.25;21.05;;;;;;;-141.02;68.07;47777.16;5135502;27;20197;-62
2023/07/14 07:29:06;;;;;;;37.88;35.78;;;;;;;-141.02;69.47;48446.28;5134911;27;20224;-63
2023/07/14 07:31:34;;;;;;;40.42;38.13;;;;;;;-141.02;66.00;47667.56;5134906;27;20192;-66
2023/07/14 07:34:03;;;;;;;21.83;20.63;;;;;;;-141.02;67.70;48498.19;5134741;27;20196;-63
2023/07/14 07:36:30;;;;;;;21.85;20.65;;;;;;;-141.02;67.53;48742.41;5135053;27;20196;-65
2023/07/14 07:38:57;;;;;;;21.90;20.70;;;;;;;-141.02;68.06;48484.72;5134809;27;20196;-62
2023/07/14 07:41:26;;;;;;;21.52;20.33;;;;;;;-141.02;64.68;47907.88;5134708;27;20651;-63
2023/07/14 07:43:54;;;;;;;21.63;20.42;;;;;;;-141.02;67.47;48542.41;5134948;27;20192;-62
2023/07/14 07:46:21;;;;;;;21.35;20.15;;;;;;;-141.02;65.06;48107.84;5134544;27;20694;-65
2023/07/14 07:48:48;;;;;;;20.95;19.75;;;;;;;-141.02;65.12;48350.13;5134478;27;20188;-65
2023/07/14 07:51:17;;;;;;;22.75;21.45;;;;;;;-141.02;66.39;49207.84;5134777;27;20196;-65
2023/07/14 07:53:44;;;;;;;22.42;21.23;;;;;;;-141.02;65.17;48773.19;5134690;27;20574;-64
2023/07/14 07:56:11;;;;;;;21.92;20.73;;;;;;;-141.02;63.84;48144.38;5134322;27;20219;-64
2023/07/14 07:58:38;;;;;;;23.35;22.05;;;;;;;-141.02;65.27;48490.50;5134690;27;20224;-65
2023/07/14 08:01:06;;;;;;;21.58;20.38;;;;;;;-141.02;69.01;49565.63;5134540;27;20188;-66
2023/07/14 08:03:34;;;;;;;21.95;20.75;;;;;;;-141.02;63.72;48069.41;5134092;27;20318;-65
2023/07/14 08:06:04;;;;;;;21.85;20.65;;;;;;;-141.02;66.78;49529.06;5134156;27;20226;-65
2023/07/14 08:08:33;;;;;;;22.48;21.27;;;;;;;-141.02;65.96;49277.09;5134006;27;20572;-65
2023/07/14 08:11:01;;;;;;;22.27;21.08;;;;;;;-141.02;63.61;48457.81;5133984;27;20206;-62
2023/07/14 08:13:29;;;;;;;21.55;20.35;;;;;;;-141.02;64.46;49173.22;5134048;27;20591;-65
2023/07/14 08:15:57;;;;;;;21.77;20.58;;;;;;;-141.02;62.21;49157.84;5134279;27;20196;-61
2023/07/14 08:18:24;;;;;;;23.45;22.15;;;;;;;-141.02;61.76;48919.34;5133797;27;20255;-64
2023/07/14 08:20:52;;;;;;;22.10;20.90;;;;;;;-141.02;60.62;49773.38;5133780;27;20199;-64
2023/07/14 08:23:22;;;;;;;22.60;21.40;;;;;;;-141.02;61.93;49704.13;5133752;27;20315;-64
2023/07/14 08:25:55;;;;;;;22.85;21.55;;;;;;;-141.02;60.51;49884.94;5134283;27;20180;-65
2023/07/14 08:28:23;;;;;;;40.45;38.15;;;;;;;-141.02;59.95;50354.38;5134025;27;20223;-57
2023/07/14 08:30:51;;;;;;;42.83;40.33;;;;;;;-141.02;58.42;49700.25;5133823;27;20253;-63
2023/07/14 08:33:19;;;;;;;22.05;20.75;;;;;;;-141.02;58.92;49892.63;5133986;27;20188;-61
2023/07/14 08:35:46;;;;;;;22.63;21.35;;;;;;;-141.02;58.04;50506.38;5133897;27;20571;-65
2023/07/14 08:38:13;;;;;;;23.58;22.27;;;;;;;-141.02;60.87;48884.72;5133866;27;20229;-66
2023/07/14 08:40:45;;;;;;;22.63;21.33;;;;;;;-141.02;61.73;49442.50;5133730;27;20235;-63
2023/07/14 08:43:26;;;;;;;23.02;21.73;;;;;;;-141.02;61.72;48315.50;5133248;27;20303;-65
2023/07/14 08:46:00;;;;;;;23.05;21.75;;;;;;;-141.02;62.82;48588.56;5133649;27;20207;-65
2023/07/14 08:48:37;;;;;;;22.65;21.40;;;;;;;-141.02;59.95;48646.25;5133569;27;20188;-66
2023/07/14 08:51:18;;;;;;;23.42;22.13;;;;;;;-141.02;58.86;48430.88;5132842;27;20185;-62
2023/07/14 08:53:50;;;;;;;23.33;22.02;;;;;;;-141.02;61.04;49444.44;5133611;27;20228;-58
2023/07/14 08:56:20;;;;;;;23.30;22.00;;;;;;;-141.02;60.79;48915.50;5133393;27;20220;-65
2023/07/14 08:58:51;;;;;;;23.15;21.85;;;;;;;-141.02;63.38;51070.19;5133687;27;20196;-65
2023/07/14 09:01:34;;;;;;;40.08;37.78;;;;;;;-141.02;65.20;52637.06;5133488;27;20212;-65
2023/07/14 09:04:06;;;;;;;22.83;21.52;;;;;;;-141.02;59.89;50408.25;5133332;27;20216;-62
2023/07/14 09:06:35;;;;;;;23.65;22.25;;;;;;;-141.02;57.68;49906.09;5133080;27;20184;-64
2023/07/14 09:09:03;;;;;;;23.02;21.73;;;;;;;-141.02;58.03;49823.38;5133366;27;20193;-57
2023/07/14 09:11:41;;;;;;;21.17;19.80;;;;;;;-141.02;57.00;50298.56;5133228;27;20200;-59
2023/07/14 09:14:23;;;;;;;23.25;21.85;;;;;;;-141.02;58.50;51403.13;5133011;27;20723;-58
2023/07/14 09:16:57;;;;;;;23.15;21.75;;;;;;;-141.02;57.36;51782.31;5132842;27;20224;-58
2023/07/14 09:19:38;;;;;;;22.55;21.23;;;;;;;-141.02;56.91;51160.66;5133275;27;20188;-63
2023/07/14 09:22:13;;;;;;;23.23;21.90;;;;;;;-141.02;56.30;49415.56;5133156;27;20279;-61
2023/07/14 09:24:52;;;;;;;22.75;21.45;;;;;;;-141.02;57.31;50054.25;5132849;28;20184;-65
2023/07/14 09:27:23;;;;;;;23.00;21.60;;;;;;;-141.02;55.89;48967.44;5132758;28;20647;-59
2023/07/14 09:29:54;;;;;;;23.02;21.73;;;;;;;-141.02;57.32;49182.84;5132660;28;20227;-57
2023/07/14 09:32:30;;;;;;;22.75;21.45;;;;;;;-141.02;58.13;50304.34;5133325;28;20294;-64
2023/07/14 09:34:59;;;;;;;23.45;22.15;;;;;;;-141.02;57.05;49977.28;5132695;28;20180;-61
2023/07/14 09:37:32;;;;;;;46.78;44.03;;;;;;;-141.02;56.18;49359.78;5132793;28;20279;-65
2023/07/14 09:40:15;;;;;;;43.00;40.50;;;;;;;-141.02;57.29;50904.69;5132511;28;20639;-59
2023/07/14 09:42:43;;;;;;;23.02;21.73;;;;;;;-141.02;55.37;49682.97;5132695;28;20208;-60
2023/07/14 09:45:19;;;;;;;23.08;21.67;;;;;;;-141.02;57.23;50950.88;5132665;28;20689;-61
2023/07/14 09:47:49;;;;;;;23.15;21.75;;;;;;;-141.02;55.02;52144.19;5132955;27;20271;-59
2023/07/14 09:50:18;;;;;;;23.30;21.92;;;;;;;-141.02;53.02;50358.22;5132722;27;20197;-60
2023/07/14 09:52:54;;;;;;;23.35;21.95;;;;;;;-141.02;56.59;52071.06;5132923;27;20199;-66
2023/07/14 09:55:22;;;;;;;22.80;21.50;;;;;;;-141.02;55.41;50135.03;5132528;28;20230;-64
2023/07/14 09:57:54;;;;;;;23.00;21.70;;;;;;;-141.02;54.94;49569.47;5132835;27;20236;-57
2023/07/14 10:00:25;;;;;;;22.52;21.15;;;;;;;-141.02;54.85;48603.97;5132465;28;20249;-60
2023/07/14 10:03:03;;;;;;;22.95;21.55;;;;;;;-141.02;55.12;48477.03;5132782;27;20212;-67
2023/07/14 10:05:44;;;;;;;22.65;21.30;;;;;;;-141.02;56.32;49028.97;5137108;27;20197;-63
2023/07/14 10:08:29;;;;;;;22.60;21.30;;;;;;;-141.02;54.91;49804.16;5136775;27;20184;-63
2023/07/14 10:10:58;;;;;;;23.23;21.98;;;;;;;-141.02;56.36;51385.81;5136698;27;20180;-58
2023/07/14 10:13:27;;;;;;;24.25;22.95;;;;;;;-141.02;53.00;50835.41;5136599;27;20282;-58
2023/07/14 10:16:03;;;;;;;24.50;23.20;;;;;;;-141.02;52.76;50360.16;5136532;27;20192;-63
2023/07/14 10:18:31;;;;;;;23.48;22.17;;;;;;;-141.02;55.02;50652.63;5136018;27;20705;-59
2023/07/14 10:21:00;;;;;;;24.65;23.35;;;;;;;-141.02;54.56;51031.69;5136547;27;20427;-66
2023/07/14 10:23:28;;;;;;;23.70;22.50;;;;;;;-141.02;54.47;49334.78;5136194;27;20219;-58
2023/07/14 10:25:55;;;;;;;22.65;21.45;;;;;;;-141.02;54.71;48732.81;5136409;27;20199;-65
2023/07/14 10:28:27;;;;;;;22.95;21.75;;;;;;;-141.02;54.63;48627.03;5135980;27;20753;-60
2023/07/14 10:31:06;;;;;;;23.17;21.98;;;;;;;-141.02;54.85;48988.59;5135967;27;20192;-60
2023/07/14 10:33:44;;;;;;;21.50;20.30;;;;;;;-141.02;53.18;49442.50;5135721;27;20646;-57
2023/07/14 10:36:14;;;;;;;21.58;20.27;;;;;;;-141.02;53.75;50050.41;5136110;27;20180;-65
2023/07/14 10:38:45;;;;;;;22.30;21.00;;;;;;;-141.02;53.26;49277.09;5135893;27;20184;-57
2023/07/14 10:41:14;;;;;;;20.95;19.75;;;;;;;-141.02;53.65;48819.34;5135858;27;20276;-60
2023/07/14 10:43:46;;;;;;;22.15;20.85;;;;;;;-141.02;53.06;48546.28;5135746;27;20315;-66
2023/07/14 10:46:18;;;;;;;22.25;20.95;;;;;;;-141.02;54.12;48617.41;5135945;27;20647;-62
2023/07/14 10:48:52;;;;;;;22.08;20.77;;;;;;;-141.02;55.86;49198.22;5135629;27;20189;-57
2023/07/14 10:51:34;;;;;;;22.08;20.88;;;;;;;-141.02;54.37;49879.19;5135904;27;20200;-64
2023/07/14 10:54:05;;;;;;;21.75;20.55;;;;;;;-141.02;54.03;49959.97;5135507;27;20224;-58
2023/07/14 10:56:36;;;;;;;21.88;20.67;;;;;;;-141.02;54.01;49638.72;5135786;27;20181;-58
2023/07/14 10:59:15;;;;;;;21.90;20.60;;;;;;;-141.02;53.34;49561.75;5135400;27;20191;-59
2023/07/14 11:01:53;;;;;;;22.42;21.23;;;;;;;-141.02;53.43;48861.66;5135738;27;20188;-58
2023/07/14 11:04:30;;;;;;;22.27;21.08;;;;;;;-141.02;53.11;48580.88;5135269;27;20778;-58
2023/07/14 11:06:58;;;;;;;22.20;21.00;;;;;;;-141.02;53.13;49152.06;5135695;27;20622;-57
2023/07/14 11:09:25;;;;;;;22.17;20.98;;;;;;;-141.02;53.01;48852.03;5135247;27;20188;-60
2023/07/14 11:12:05;;;;;;;21.35;20.15;;;;;;;-141.02;55.75;50791.16;5135113;27;20662;-58
2023/07/14 11:14:45;;;;;;;21.70;20.50;;;;;;;-141.02;54.33;49298.25;5134523;27;20188;-65
2023/07/14 11:17:22;;;;;;;21.70;20.50;;;;;;;-141.02;55.10;47977.09;5134969;27;20238;-56
2023/07/14 11:20:03;;;;;;;21.80;20.60;;;;;;;-141.02;53.75;48840.50;5135073;27;20280;-57
2023/07/14 11:22:47;;;;;;;21.27;20.08;;;;;;;-141.02;55.91;49742.59;5135221;27;20188;-57
2023/07/14 11:25:20;;;;;;;21.55;20.35;;;;;;;-141.02;56.46;49584.84;5135045;27;20567;-56
2023/07/14 11:27:57;;;;;;;21.23;20.02;;;;;;;-141.02;53.56;49723.34;5135216;27;20197;-61
2023/07/14 11:30:30;;;;;;;20.90;19.70;;;;;;;-141.02;53.13;51813.09;5134823;27;20188;-60
2023/07/14 11:33:06;;;;;;;21.50;20.30;;;;;;;-141.02;51.49;51755.38;5135140;27;20313;-63
2023/07/14 11:35:36;;;;;;;22.17;20.88;;;;;;;-141.02;54.27;52059.50;5134782;27;20275;-59
2023/07/14 11:38:20;;;;;;;21.80;20.55;;;;;;;-141.02;52.85;52794.94;5135156;27;20192;-58
2023/07/14 11:40:52;;;;;;;22.25;20.95;;;;;;;-141.02;53.28;52019.06;5134542;27;20276;-59
2023/07/14 11:43:22;;;;;;;21.70;20.40;;;;;;;-141.02;51.98;50954.72;5134794;27;20223;-59
2023/07/14 11:45:58;;;;;;;23.45;22.15;;;;;;;-141.02;53.20;51547.50;5134885;27;20611;-57
2023/07/14 11:48:36;;;;;;;23.35;22.05;;;;;;;-141.02;52.40;50985.53;5134477;27;20219;-60
2023/07/14 11:51:06;;;;;;;23.02;21.73;;;;;;;-141.02;53.47;50658.38;5134417;27;20188;-57
2023/07/14 11:53:38;;;;;;;22.60;21.30;;;;;;;-141.02;53.25;50562.19;5134339;27;20276;-60
2023/07/14 11:56:27;;;;;;;23.30;22.00;;;;;;;-141.02;53.82;52486.88;5134664;27;20637;-57
2023/07/14 11:59:13;;;;;;;22.63;21.40;;;;;;;-141.02;52.69;50900.84;5131048;27;20275;-62